Latest Weather Observations for Cape Byron

IDN60801

Issued at 12:33 am EST Wednesday 29 June 2016 (issued every 30 minutes, with the page automatically refreshed every 10 minutes)

About weather observations | Map of weather stations | Latest weather observations for NSW | Other Formats
Station Details ID: 058216 Name: CAPE BYRON AWS Lat: -28.64 Lon: 153.64 Height: 95.0 m
Data from the previous 72 hours. | See also: Recent months at Cape Byron
Date/Time
EST
Temp
°C
App
Temp
°C
Dew
Point
°C
Rel
Hum
%
Delta-T
°C
Wind Press
QNH
hPa
Press
MSL
hPa
Rain since
9am
mm
Dir  Spd
km/h
Gust
km/h
Spd
kts
Gust
kts
29/12:30am 13.9 7.0 6.3 60 3.6 SW 32 43 17 23 1024.0 1023.9 0.0
29/12:00am 13.9 6.9 6.0 59 3.8 SW 32 39 17 21 1024.0 1023.9 0.0
 
Date/Time
EST
Temp
°C
App
Temp
°C
Dew
Point
°C
Rel
Hum
%
Delta-T
°C
Wind Press
QNH
hPa
Press
MSL
hPa
Rain since
9am
mm
Dir  Spd
km/h
Gust
km/h
Spd
kts
Gust
kts
28/11:30pm 14.1 7.1 6.2 59 3.8 SW 32 44 17 24 1024.0 1023.9 0.0
28/11:00pm 14.0 6.9 6.6 61 3.6 SW 33 44 18 24 1024.1 1024.0 0.0
28/10:30pm 14.2 6.9 7.0 62 3.5 SW 35 46 19 25 1024.1 1024.0 0.0
28/10:00pm 14.1 7.3 6.9 62 3.5 SW 32 39 17 21 1024.0 1023.9 0.0
28/09:30pm 14.1 7.3 6.9 62 3.5 SW 32 39 17 21 1023.9 1023.8 0.0
28/09:00pm 14.1 8.2 7.6 65 3.2 SW 28 37 15 20 1023.7 1023.6 0.0
28/08:30pm 14.2 8.3 7.5 64 3.3 SW 28 35 15 19 1023.4 1023.3 0.0
28/08:00pm 14.4 8.8 7.2 62 3.5 SW 26 33 14 18 1023.2 1023.1 0.0
28/07:30pm 14.7 8.8 7.7 63 3.5 SW 28 35 15 19 1022.9 1022.8 0.0
28/07:00pm 14.7 9.0 8.4 66 3.2 SW 28 33 15 18 1022.7 1022.6 0.0
28/06:30pm 15.0 9.3 8.5 65 3.3 SW 28 37 15 20 1022.3 1022.2 0.0
28/06:00pm 14.8 9.5 8.5 66 3.2 SW 26 32 14 17 1021.8 1021.7 0.0
28/05:30pm 15.0 10.5 8.7 66 3.2 SW 22 30 12 16 1021.4 1021.3 0.0
28/05:00pm 15.4 11.2 8.4 63 3.5 SW 20 24 11 13 1020.9 1020.8 0.0
28/04:30pm 16.2 11.0 8.7 61 3.9 SW 26 39 14 21 1020.6 1020.5 0.0
28/04:00pm 16.7 11.2 9.1 61 3.9 SSW 28 41 15 22 1020.1 1020.0 0.0
28/03:30pm 17.1 9.7 6.6 50 5.2 SSW 35 43 19 23 1019.9 1019.8 0.0
28/03:00pm 17.2 10.9 7.5 53 4.9 SSW 30 37 16 20 1019.5 1019.3 0.0
28/02:30pm 17.0 9.9 7.9 55 4.6 SSW 35 46 19 25 1018.9 1018.7 0.0
28/02:12pm 17.1 10.1 6.9 51 5.1 SSW 33 43 18 23 1018.8 1018.6 0.0
28/02:00pm 17.3 10.2 5.3 45 5.8 SW 32 46 17 25 1018.7 1018.5 0.0
28/01:30pm 17.1 10.5 6.0 48 5.4 SW 30 50 16 27 1018.9 1018.7 0.0
28/01:00pm 16.7 8.5 4.7 45 5.7 SW 37 56 20 30 1018.6 1018.4 0.0
28/12:52pm 16.5 8.2 4.2 44 5.8 SW 37 56 20 30 1018.5 1018.3 0.0
28/12:30pm 16.2 7.9 4.3 45 5.6 SW 37 54 20 29 1018.7 1018.5 0.0
28/12:05pm 15.7 8.1 3.8 45 5.5 SW 33 54 18 29 1018.9 1018.7 0.0
28/12:00pm 15.9 8.9 4.3 46 5.4 SW 30 41 16 22 1019.1 1018.9 0.0
28/11:44am 15.3 7.6 3.5 45 5.4 SW 33 54 18 29 1019.2 1019.0 0.0
28/11:30am 15.0 7.9 3.5 46 5.3 SW 30 46 16 25 1019.2 1019.0 0.0
28/11:00am 14.4 7.2 3.2 47 5.1 SW 30 41 16 22 1019.4 1019.2 0.0
28/10:30am 13.5 6.0 3.3 50 4.6 WSW 32 46 17 25 1019.5 1019.3 0.0
28/10:07am 12.7 5.8 2.8 51 4.4 WSW 28 46 15 25 1019.5 1019.3 0.0
28/10:00am 12.5 5.0 3.2 53 4.1 WSW 32 46 17 25 1019.5 1019.3 0.0
28/09:44am 12.0 4.3 2.2 51 4.2 WSW 32 54 17 29 1019.4 1019.2 0.0
28/09:30am 11.5 3.2 2.0 52 4.1 WSW 35 48 19 26 1019.3 1019.1 0.0
28/09:12am 11.1 4.1 2.2 54 3.8 WSW 28 46 15 25 1019.3 1019.1 0.0
28/09:00am 10.8 3.9 2.4 56 3.6 W 28 39 15 21 1019.3 1019.1 0.0
28/08:30am 10.1 2.7 1.7 56 3.5 W 30 43 16 23 1019.0 1018.8 0.0
28/08:00am 9.3 1.9 1.7 59 3.2 W 30 43 16 23 1018.9 1018.7 0.0
28/07:30am 8.8 0.8 1.5 60 3.0 W 33 44 18 24 1018.8 1018.6 0.0
28/07:00am 8.4 0.4 1.6 62 2.8 W 33 43 18 23 1018.4 1018.2 0.0
28/06:30am 8.3 0.5 1.7 63 2.7 W 32 44 17 24 1018.1 1017.9 0.0
28/06:00am 8.3 -0.1 1.5 62 2.8 W 35 46 19 25 1017.9 1017.7 0.0
28/05:30am 8.3 0.3 1.7 63 2.7 W 33 48 18 26 1017.6 1017.4 0.0
28/05:08am 8.5 0.1 1.6 62 2.9 W 35 54 19 29 1017.2 1017.0 0.0
28/05:00am 8.6 -0.5 1.7 62 2.9 W 39 52 21 28 1017.1 1016.9 0.0
28/04:30am 8.5 0.2 1.9 63 2.7 W 35 48 19 26 1017.1 1016.9 0.0
28/04:00am 8.5 0.5 1.9 63 2.7 W 33 46 18 25 1016.9 1016.7 0.0
28/03:32am 8.5 0.7 1.9 63 2.7 W 32 50 17 27 1016.9 1016.7 0.0
28/03:30am 8.5 0.7 1.9 63 2.7 W 32 44 17 24 1016.9 1016.7 0.0
28/03:04am 8.5 1.1 2.1 64 2.7 W 30 48 16 26 1016.8 1016.6 0.0
28/03:00am 8.7 1.3 2.1 63 2.8 W 30 41 16 22 1016.9 1016.7 0.0
28/02:30am 8.9 1.6 2.3 63 2.8 W 30 46 16 25 1016.9 1016.7 0.0
28/02:11am 9.0 2.1 2.3 63 2.8 W 28 56 15 30 1016.8 1016.6 0.0
28/02:00am 8.9 2.8 2.5 64 2.7 W 24 39 13 21 1017.0 1016.8 0.0
28/01:30am 9.1 2.6 2.9 65 2.7 W 26 44 14 24 1016.7 1016.5 0.0
28/01:00am 9.1 4.4 3.1 66 2.6 W 17 30 9 16 1017.1 1016.9 0.0
28/12:30am 9.2 4.9 3.2 66 2.6 W 15 32 8 17 1017.2 1017.0 0.0
28/12:00am 9.3 5.3 3.1 65 2.7 W 13 20 7 11 1017.2 1017.0 0.0
 
Date/Time
EST
Temp
°C
App
Temp
°C
Dew
Point
°C
Rel
Hum
%
Delta-T
°C
Wind Press
QNH
hPa
Press
MSL
hPa
Rain since
9am
mm
Dir  Spd
km/h
Gust
km/h
Spd
kts
Gust
kts
27/11:30pm 9.8 4.7 3.3 64 2.8 W 19 30 10 16 1017.1 1016.9 0.0
27/11:00pm 10.0 4.4 3.3 63 2.9 W 22 35 12 19 1017.2 1017.0 0.0
27/10:30pm 10.2 4.5 3.0 61 3.1 WSW 22 35 12 19 1017.4 1017.2 0.0
27/10:00pm 10.6 3.9 3.6 62 3.1 W 28 41 15 22 1016.9 1016.7 0.0
27/09:49pm 10.7 3.6 3.7 62 3.1 W 30 48 16 26 1016.7 1016.5 0.0
27/09:30pm 10.9 4.2 3.9 62 3.1 W 28 41 15 22 1016.7 1016.5 0.0
27/09:00pm 11.0 4.8 4.2 63 3.0 WNW 26 35 14 19 1016.5 1016.3 0.0
27/08:30pm 11.2 5.1 4.7 64 3.0 W 26 39 14 21 1016.5 1016.3 0.0
27/08:00pm 11.5 5.8 4.7 63 3.1 W 24 35 13 19 1016.5 1016.3 0.0
27/07:30pm 11.8 6.1 4.8 62 3.2 W 24 37 13 20 1016.4 1016.2 0.0
27/07:00pm 12.4 5.9 4.9 60 3.5 W 28 39 15 21 1016.3 1016.1 0.0
27/06:30pm 12.8 7.1 5.0 59 3.6 WNW 24 39 13 21 1015.7 1015.6 0.0
27/06:00pm 13.4 7.8 5.3 58 3.8 W 24 35 13 19 1015.4 1015.3 0.0
27/05:30pm 14.4 8.2 6.0 57 4.0 W 28 41 15 22 1014.4 1014.3 0.0
27/05:06pm 15.2 8.7 6.5 56 4.2 WNW 30 50 16 27 1013.7 1013.6 0.0
27/05:00pm 15.3 8.4 6.3 55 4.4 W 32 44 17 24 1013.8 1013.7 0.0
27/04:47pm 15.7 9.1 6.2 53 4.6 W 30 50 16 27 1013.8 1013.7 0.0
27/04:44pm 15.7 9.6 6.7 55 4.4 W 28 43 15 23 1013.8 1013.7 0.0
27/04:30pm 16.3 11.9 7.5 56 4.4 W 20 32 11 17 1013.5 1013.4 0.0
27/04:00pm 17.3 13.2 8.7 57 4.4 WNW 20 33 11 18 1013.1 1013.0 0.0
27/03:30pm 17.9 14.5 9.0 56 4.6 WNW 17 26 9 14 1012.6 1012.5 0.0
27/03:00pm 17.3 12.4 8.4 56 4.6 WNW 24 39 13 21 1012.2 1012.1 0.0
27/02:30pm 18.0 14.1 8.8 55 4.8 W 19 33 10 18 1012.4 1012.3 0.0
27/02:00pm 18.7 15.2 8.9 53 5.1 W 17 30 9 16 1012.6 1012.5 0.0
27/01:30pm 18.6 14.4 8.3 51 5.3 WNW 20 37 11 20 1012.5 1012.4 0.0
27/01:00pm 18.6 14.9 9.4 55 4.9 WNW 19 33 10 18 1012.4 1012.3 0.0
27/12:30pm 17.8 13.6 9.7 59 4.3 WNW 22 43 12 23 1012.9 1012.8 0.0
27/12:00pm 16.9 13.1 11.2 69 3.1 W 22 33 12 18 1013.5 1013.4 0.0
27/11:30am 16.8 14.4 12.5 76 2.4 WSW 17 26 9 14 1014.2 1014.1 0.0
27/11:00am 18.1 17.6 12.8 71 3.0 W 7 15 4 8 1014.5 1014.4 0.0
27/10:30am 18.7 18.3 14.2 75 2.6 N 9 13 5 7 1015.0 1014.9 0.0
27/10:00am 17.6 17.4 13.7 78 2.2 N 7 13 4 7 1015.1 1015.0 0.0
27/09:30am 15.9 15.1 13.0 83 1.6 NNW 9 15 5 8 1015.4 1015.3 0.0
27/09:00am 13.7 13.2 12.1 90 0.9 NNW 6 9 3 5 1015.7 1015.6 0.8
27/08:30am 13.5 11.9 11.7 89 1.0 WNW 11 17 6 9 1015.9 1015.8 0.8
27/08:00am 13.8 12.1 11.1 84 1.4 W 11 15 6 8 1015.9 1015.8 0.4
27/07:30am 13.1 11.0 11.3 89 1.0 WSW 13 15 7 8 1015.7 1015.6 0.4
27/07:00am 13.7 13.2 12.1 90 0.9 NW 6 9 3 5 1015.9 1015.8 0.4
27/06:30am 14.4 13.8 12.4 88 1.1 NW 7 11 4 6 1015.5 1015.4 0.4
27/06:00am 15.3 14.8 12.6 84 1.5 NNE 7 13 4 7 1015.3 1015.2 0.0
27/05:30am 15.6 14.6 12.4 81 1.8 NE 9 17 5 9 1015.6 1015.5 0.0
27/05:00am 15.0 13.2 12.1 83 1.6 NW 13 24 7 13 1015.0 1014.9 0.0
27/04:30am 14.5 13.7 11.7 83 1.5 WNW 7 15 4 8 1015.3 1015.2 0.0
27/04:00am 14.4 13.5 10.6 78 2.0 WNW 6 9 3 5 1014.9 1014.8 0.0
27/03:30am 14.9 13.9 10.9 77 2.1 W 7 15 4 8 1014.9 1014.8 0.0
27/03:00am 15.5 14.3 11.5 77 2.2 N 9 17 5 9 1014.8 1014.7 0.0
27/02:30am 15.8 13.5 11.8 77 2.2 N 15 26 8 14 1014.7 1014.6 0.0
27/02:00am 15.6 13.3 11.6 77 2.2 N 15 22 8 12 1015.1 1015.0 0.0
27/01:30am 15.4 13.3 11.0 75 2.4 NNW 13 20 7 11 1015.3 1015.2 0.0
27/01:00am 15.0 13.5 10.4 74 2.4 N 9 15 5 8 1015.8 1015.7 0.0
27/12:30am 15.1 13.4 9.9 71 2.7 NW 9 17 5 9 1016.5 1016.3 0.0
27/12:00am 15.1 13.0 9.7 70 2.8 NNW 11 20 6 11 1016.7 1016.5 0.0
 
Date/Time
EST
Temp
°C
App
Temp
°C
Dew
Point
°C
Rel
Hum
%
Delta-T
°C
Wind Press
QNH
hPa
Press
MSL
hPa
Rain since
9am
mm
Dir  Spd
km/h
Gust
km/h
Spd
kts
Gust
kts
26/11:30pm 14.9 13.2 9.7 71 2.7 NNW 9 15 5 8 1017.2 1017.0 0.0
26/11:00pm 14.8 13.0 9.6 71 2.7 N 9 11 5 6 1017.2 1017.0 0.0
26/10:30pm 15.0 13.6 9.4 69 2.9 NNW 7 13 4 7 1017.9 1017.7 0.0
26/10:00pm 15.3 13.2 9.7 69 2.9 NNW 11 17 6 9 1017.9 1017.7 0.0
26/09:30pm 15.6 12.6 9.3 66 3.3 N 15 24 8 13 1017.9 1017.7 0.0
26/09:00pm 15.5 11.9 8.5 63 3.6 N 17 20 9 11 1018.0 1017.8 0.0
26/08:30pm 14.8 12.5 9.0 68 3.0 NNW 11 17 6 9 1018.1 1017.9 0.0
26/08:00pm 14.4 13.1 9.2 71 2.7 NNW 6 9 3 5 1018.5 1018.3 0.0
26/07:30pm 14.8 13.2 8.7 67 3.1 NNW 7 11 4 6 1018.8 1018.6 0.0
26/07:00pm 15.6 12.5 7.1 57 4.2 N 13 20 7 11 1018.7 1018.5 0.0
26/06:30pm 15.7 12.0 6.2 53 4.6 NNE 15 22 8 12 1018.4 1018.2 0.0
26/06:00pm 15.6 11.7 5.5 51 4.8 NNE 15 24 8 13 1018.1 1017.9 0.0
26/05:30pm 15.3 11.1 5.5 52 4.7 NE 17 22 9 12 1017.8 1017.6 0.0
26/05:00pm 15.3 11.7 5.2 51 4.8 NE 13 20 7 11 1017.5 1017.3 0.0
26/04:30pm 15.3 11.1 5.5 52 4.7 NE 17 28 9 15 1017.6 1017.4 0.0
26/04:00pm 15.4 11.2 3.9 46 5.3 NNE 15 20 8 11 1017.8 1017.6 0.0
26/03:30pm 15.7 11.9 3.8 45 5.5 NNE 13 17 7 9 1017.8 1017.6 0.0
26/03:00pm 15.9 12.4 5.5 50 5.0 NE 13 19 7 10 1017.7 1017.5 0.0
26/02:30pm 16.5 13.7 6.9 53 4.8 ENE 11 13 6 7 1018.1 1017.9 0.0
26/02:00pm 16.0 13.0 6.2 52 4.8 E 11 17 6 9 1018.0 1017.8 0.0
26/01:30pm 16.0 13.1 4.7 47 5.3 SE 9 15 5 8 1018.7 1018.5 0.0
26/01:00pm 15.7 12.6 3.8 45 5.5 SE 9 13 5 7 1019.1 1018.9 0.0
26/12:30pm 15.8 12.8 4.2 46 5.4 SSE 9 13 5 7 1019.6 1019.4 0.0
26/12:00pm 15.7 13.2 3.5 44 5.6 S 6 9 3 5 1020.2 1020.1 0.0
26/11:30am 15.5 12.7 3.0 43 5.7 S 7 11 4 6 1020.4 1020.3 0.0
26/11:00am 15.3 12.8 5.0 50 4.9 SW 7 9 4 5 1020.9 1020.8 0.0
26/10:30am 12.6 9.4 3.0 52 4.3 WSW 9 13 5 7 1021.0 1020.9 0.0
26/10:00am 13.0 10.2 3.1 51 4.4 WSW 7 11 4 6 1021.3 1021.2 0.0
26/09:30am 12.2 8.0 1.8 49 4.5 WSW 13 20 7 11 1021.4 1021.3 0.0
26/09:00am 11.7 6.0 0.8 47 4.5 W 20 30 11 16 1021.6 1021.5 0.0
26/08:30am 10.8 4.2 -0.6 45 4.6 W 24 32 13 17 1021.7 1021.6 0.0
26/08:00am 10.2 3.9 -0.9 46 4.4 W 22 28 12 15 1020.8 1020.7 0.0
26/07:30am 9.4 2.4 -0.8 49 4.0 W 26 32 14 17 1020.8 1020.7 0.0
26/07:00am 9.8 2.7 -1.0 47 4.2 WSW 26 32 14 17 1020.6 1020.5 0.0
26/06:30am 9.7 2.6 -1.1 47 4.2 WSW 26 32 14 17 1020.2 1020.1 0.0
26/06:00am 9.6 2.2 -0.9 48 4.1 WSW 28 35 15 19 1020.1 1020.0 0.0
26/05:30am 9.5 1.7 -0.9 48 4.1 WSW 30 35 16 19 1019.4 1019.2 0.0
26/05:00am 9.5 1.4 -0.4 50 3.9 WSW 32 39 17 21 1019.2 1019.0 0.0
26/04:30am 9.3 1.2 0.0 52 3.7 WSW 32 37 17 20 1019.0 1018.8 0.0
26/04:00am 10.0 2.6 -0.8 47 4.3 WSW 28 35 15 19 1018.7 1018.5 0.0
26/03:30am 11.4 4.5 -2.4 38 5.3 WSW 24 30 13 16 1018.8 1018.6 0.0
26/03:00am 11.6 5.0 -2.9 36 5.6 WSW 22 28 12 15 1018.6 1018.4 0.0
26/02:30am 11.6 4.6 -3.7 34 5.8 WSW 24 28 13 15 1018.8 1018.6 0.0
26/02:00am 11.8 5.2 -3.5 34 5.8 W 22 30 12 16 1019.0 1018.8 0.0
26/01:30am 12.3 6.0 -3.9 32 6.1 W 20 24 11 13 1019.2 1019.0 0.0
26/01:00am 12.0 5.9 -4.2 32 6.0 W 19 24 10 13 1019.4 1019.2 0.0

Other Formats:

Comma delimited format used in spreadsheet applications
http://www.bom.gov.au/fwo/IDN60801/IDN60801.94599.axf

JavaScript Object Notation format (JSON) in row-major order
http://www.bom.gov.au/fwo/IDN60801/IDN60801.94599.json